createdAt,value
2019-03-30T00:00:42.784Z,99.90
2019-03-30T00:03:15.743Z,99.90
2019-03-30T00:05:51.814Z,99.90
2019-03-30T00:08:24.271Z,99.90
2019-03-30T00:10:57.697Z,99.90
2019-03-30T00:13:37.716Z,99.90
2019-03-30T00:16:12.143Z,99.90
2019-03-30T00:18:44.875Z,99.90
2019-03-30T00:21:15.145Z,99.90
2019-03-30T00:23:45.429Z,99.90
2019-03-30T00:26:15.649Z,99.90
2019-03-30T00:28:45.961Z,99.90
2019-03-30T00:31:16.209Z,99.90
2019-03-30T00:33:46.392Z,99.90
2019-03-30T00:36:16.652Z,99.90
2019-03-30T00:38:47.164Z,99.90
2019-03-30T00:41:17.381Z,99.90
2019-03-30T00:43:47.579Z,99.90
2019-03-30T00:46:17.856Z,99.90
2019-03-30T00:48:48.149Z,99.90
2019-03-30T00:51:18.343Z,99.90
2019-03-30T00:53:48.527Z,99.90
2019-03-30T00:56:18.732Z,99.90
2019-03-30T00:58:48.961Z,99.90
2019-03-30T01:01:19.194Z,99.90
2019-03-30T01:03:49.420Z,99.90
2019-03-30T01:06:19.637Z,99.90
2019-03-30T01:08:49.890Z,99.90
2019-03-30T01:11:20.194Z,99.90
2019-03-30T01:13:50.392Z,99.90
2019-03-30T01:16:20.598Z,99.90
2019-03-30T01:18:50.761Z,99.90
2019-03-30T01:21:20.959Z,99.90
2019-03-30T01:23:51.276Z,99.90
2019-03-30T01:26:21.528Z,99.90
2019-03-30T01:28:51.824Z,99.90
2019-03-30T01:31:22.117Z,99.90
2019-03-30T01:33:52.296Z,99.90
2019-03-30T01:36:22.523Z,99.90
2019-03-30T01:38:52.741Z,99.90
2019-03-30T01:41:23.044Z,99.90
2019-03-30T01:43:53.226Z,99.90
2019-03-30T01:46:23.486Z,99.90
2019-03-30T01:48:53.737Z,99.90
2019-03-30T01:51:23.969Z,99.90
2019-03-30T01:53:54.279Z,99.90
2019-03-30T01:56:24.527Z,99.90
2019-03-30T01:58:54.860Z,99.90
2019-03-30T02:01:25.057Z,99.90
2019-03-30T02:03:55.261Z,99.90
2019-03-30T02:06:25.458Z,99.90
2019-03-30T02:08:55.641Z,99.90
2019-03-30T02:11:25.862Z,99.90
2019-03-30T02:13:56.071Z,99.90
2019-03-30T02:16:26.344Z,99.90
2019-03-30T02:18:56.566Z,99.90
2019-03-30T02:21:26.828Z,99.90
2019-03-30T02:23:57.016Z,99.90
2019-03-30T02:26:27.198Z,99.90
2019-03-30T02:28:57.497Z,99.90
2019-03-30T02:31:27.760Z,99.90
2019-03-30T02:33:58.006Z,99.90
2019-03-30T02:36:28.208Z,99.90
2019-03-30T02:38:58.418Z,99.90
2019-03-30T02:41:28.636Z,99.90
2019-03-30T02:43:58.864Z,99.90
2019-03-30T02:46:29.096Z,99.90
2019-03-30T02:48:59.290Z,99.90
2019-03-30T02:51:29.527Z,99.90
2019-03-30T02:53:59.725Z,99.90
2019-03-30T02:56:29.929Z,99.90
2019-03-30T02:59:00.129Z,99.90
2019-03-30T03:01:30.292Z,99.90
2019-03-30T03:04:00.541Z,99.90
2019-03-30T03:06:30.739Z,99.90
2019-03-30T03:09:00.975Z,99.90
2019-03-30T03:11:31.245Z,99.90
2019-03-30T03:14:01.469Z,99.90
2019-03-30T03:16:31.651Z,99.90
2019-03-30T03:19:01.909Z,99.90
2019-03-30T03:21:32.073Z,99.90
2019-03-30T03:24:02.317Z,99.90
2019-03-30T03:26:32.543Z,99.90
2019-03-30T03:29:02.761Z,99.90
2019-03-30T03:31:32.963Z,99.90
2019-03-30T03:34:03.162Z,99.90
2019-03-30T03:36:33.318Z,99.90
2019-03-30T03:39:04.294Z,99.90
2019-03-30T03:41:34.481Z,99.90
2019-03-30T03:44:04.739Z,99.90
2019-03-30T03:46:35.026Z,99.90
2019-03-30T03:49:05.162Z,99.90
2019-03-30T03:51:35.672Z,99.90
2019-03-30T03:54:06.002Z,99.90
2019-03-30T03:56:38.012Z,99.90
2019-03-30T03:59:09.851Z,99.90
2019-03-30T04:01:41.753Z,99.90
2019-03-30T04:04:14.100Z,99.90
2019-03-30T04:06:47.485Z,99.90
2019-03-30T04:09:23.530Z,99.90
2019-03-30T04:11:55.431Z,99.90
2019-03-30T04:14:27.663Z,99.90
2019-03-30T04:16:57.770Z,99.90
2019-03-30T04:19:27.950Z,99.90
2019-03-30T04:21:58.052Z,99.90
2019-03-30T04:24:28.140Z,99.90
2019-03-30T04:26:58.187Z,99.90
2019-03-30T04:29:28.280Z,99.90
2019-03-30T04:31:58.349Z,99.90
2019-03-30T04:34:28.480Z,99.90
2019-03-30T04:36:58.534Z,99.90
2019-03-30T04:39:28.645Z,99.90
2019-03-30T04:41:58.785Z,99.90
2019-03-30T04:44:28.836Z,99.90
2019-03-30T04:46:58.931Z,99.90
2019-03-30T04:49:29.047Z,99.90
2019-03-30T04:51:59.119Z,99.90
2019-03-30T04:54:29.229Z,99.90
2019-03-30T04:56:59.492Z,99.90
2019-03-30T04:59:29.612Z,99.90
2019-03-30T05:01:59.832Z,99.90
2019-03-30T05:04:29.909Z,99.90
2019-03-30T05:07:00.025Z,99.90
2019-03-30T05:09:30.123Z,99.90
2019-03-30T05:12:00.206Z,99.90
2019-03-30T05:14:30.292Z,99.90
2019-03-30T05:17:00.342Z,99.90
2019-03-30T05:19:30.416Z,99.90
2019-03-30T05:22:11.493Z,99.90
2019-03-30T05:24:32.239Z,99.90
2019-03-30T05:27:02.516Z,99.90
2019-03-30T05:29:32.605Z,99.90
2019-03-30T05:32:02.657Z,99.90
2019-03-30T05:34:32.749Z,99.90
2019-03-30T05:37:02.856Z,99.90
2019-03-30T05:39:32.937Z,99.90
2019-03-30T05:42:03.116Z,99.90
2019-03-30T05:44:33.246Z,99.90
2019-03-30T05:47:03.334Z,99.90
2019-03-30T05:49:33.467Z,99.90
2019-03-30T05:52:03.604Z,99.90
2019-03-30T05:54:33.739Z,99.90
2019-03-30T05:57:03.787Z,99.90
2019-03-30T05:59:36.903Z,99.90
2019-03-30T06:02:12.023Z,99.90
2019-03-30T06:04:42.181Z,99.90
2019-03-30T06:07:12.307Z,99.90
2019-03-30T06:09:42.396Z,99.90
2019-03-30T06:12:12.605Z,99.90
2019-03-30T06:14:42.706Z,99.90
2019-03-30T06:17:12.743Z,99.90
2019-03-30T06:19:42.917Z,99.90
2019-03-30T06:22:12.988Z,99.90
2019-03-30T06:24:43.935Z,99.90
2019-03-30T06:27:14.041Z,99.90
2019-03-30T06:29:44.996Z,99.90
2019-03-30T06:32:15.307Z,99.90
2019-03-30T06:34:45.500Z,99.90
2019-03-30T06:37:15.681Z,99.90
2019-03-30T06:39:45.896Z,99.90
2019-03-30T06:42:16.089Z,99.90
2019-03-30T06:44:46.336Z,99.90
2019-03-30T06:47:16.623Z,99.90
2019-03-30T06:49:46.848Z,99.90
2019-03-30T06:52:17.098Z,99.90
2019-03-30T06:54:47.383Z,99.90
2019-03-30T06:57:17.737Z,99.90
2019-03-30T06:59:48.054Z,99.90
2019-03-30T07:02:18.496Z,99.90
2019-03-30T07:04:48.931Z,99.90
2019-03-30T07:07:19.583Z,99.90
2019-03-30T07:09:52.469Z,99.90
2019-03-30T07:12:24.574Z,99.90
2019-03-30T07:14:56.332Z,99.90
2019-03-30T07:17:26.639Z,99.90
2019-03-30T07:19:57.908Z,99.90
2019-03-30T07:22:27.970Z,99.90
2019-03-30T07:24:58.072Z,99.90
2019-03-30T07:27:28.139Z,99.90
2019-03-30T07:29:59.407Z,99.90
2019-03-30T07:32:29.427Z,99.90
2019-03-30T07:34:59.478Z,99.90
2019-03-30T07:37:29.528Z,99.90
2019-03-30T07:40:00.606Z,99.90
2019-03-30T07:42:30.747Z,99.90
2019-03-30T07:45:00.961Z,99.90
2019-03-30T07:47:31.059Z,99.90
2019-03-30T07:50:01.288Z,99.90
2019-03-30T07:52:31.527Z,99.90
2019-03-30T07:55:01.734Z,99.90
2019-03-30T07:57:31.864Z,99.90
2019-03-30T08:00:02.306Z,99.90
2019-03-30T08:02:32.567Z,99.90
2019-03-30T08:05:30.625Z,99.90
2019-03-30T08:07:59.787Z,99.90
2019-03-30T08:10:31.924Z,99.90
2019-03-30T08:13:02.197Z,99.90
2019-03-30T08:15:32.397Z,99.90
2019-03-30T08:18:02.847Z,99.90
2019-03-30T08:20:33.085Z,99.90
2019-03-30T08:23:03.436Z,99.90
2019-03-30T08:25:36.209Z,99.90
2019-03-30T08:28:06.493Z,99.90
2019-03-30T08:30:55.716Z,99.90
2019-03-30T08:33:26.245Z,99.90
2019-03-30T08:35:56.438Z,99.90
2019-03-30T08:38:47.988Z,99.90
2019-03-30T08:44:24.725Z,99.90
2019-03-30T08:46:55.226Z,99.90
2019-03-30T08:49:25.468Z,99.90
2019-03-30T08:51:57.146Z,99.90
2019-03-30T08:54:28.445Z,99.90
2019-03-30T08:56:58.831Z,99.90
2019-03-30T08:59:41.486Z,99.90
2019-03-30T09:02:11.709Z,99.90
2019-03-30T09:04:42.059Z,99.90
2019-03-30T09:07:13.483Z,99.90
2019-03-30T09:09:43.702Z,99.90
2019-03-30T09:12:13.936Z,99.40
2019-03-30T09:14:44.401Z,99.10
2019-03-30T09:17:14.596Z,99.00
2019-03-30T09:19:47.458Z,97.50
2019-03-30T09:22:17.493Z,97.10
2019-03-30T09:24:48.691Z,96.40
2019-03-30T09:27:18.835Z,96.40
2019-03-30T09:33:30.902Z,96.70
2019-03-30T09:36:01.392Z,96.60
2019-03-30T09:38:31.948Z,96.50
2019-03-30T09:41:06.023Z,95.90
2019-03-30T09:43:54.531Z,95.70
2019-03-30T09:46:26.394Z,96.40
2019-03-30T09:49:01.922Z,96.50
2019-03-30T09:51:55.818Z,96.00
2019-03-30T09:54:28.673Z,95.60
2019-03-30T09:57:02.860Z,95.50
2019-03-30T09:59:45.661Z,95.00
2019-03-30T10:02:26.779Z,95.20
2019-03-30T10:05:28.822Z,94.50
2019-03-30T10:08:14.780Z,95.30
2019-03-30T10:10:47.273Z,94.50
2019-03-30T10:13:17.587Z,94.90
2019-03-30T10:15:53.773Z,94.20
2019-03-30T10:18:24.157Z,94.20
2019-03-30T10:20:54.377Z,94.80
2019-03-30T10:23:25.401Z,94.70
2019-03-30T10:25:55.701Z,94.80
2019-03-30T10:28:25.925Z,94.20
2019-03-30T10:30:56.328Z,93.60
2019-03-30T10:33:32.000Z,93.70
2019-03-30T10:36:02.192Z,92.80
2019-03-30T10:38:32.421Z,93.80
2019-03-30T10:41:02.636Z,93.60
2019-03-30T10:43:32.886Z,93.10
2019-03-30T10:46:03.062Z,93.20
2019-03-30T10:48:33.340Z,92.70
2019-03-30T10:51:03.629Z,93.80
2019-03-30T10:53:33.847Z,93.30
2019-03-30T10:56:04.134Z,93.90
2019-03-30T10:58:34.330Z,93.10
2019-03-30T11:01:04.696Z,93.90
2019-03-30T11:03:34.950Z,93.10
2019-03-30T11:06:05.234Z,93.10
2019-03-30T11:08:35.966Z,93.20
2019-03-30T11:11:06.240Z,92.20
2019-03-30T11:13:36.466Z,93.20
2019-03-30T11:16:06.713Z,92.30
2019-03-30T11:18:37.053Z,92.60
2019-03-30T11:21:07.404Z,92.80
2019-03-30T11:23:37.698Z,92.60
2019-03-30T11:26:08.062Z,91.90
2019-03-30T11:28:38.313Z,92.20
2019-03-30T11:31:10.857Z,92.30
2019-03-30T11:33:41.155Z,91.70
2019-03-30T11:36:11.760Z,91.90
2019-03-30T11:38:42.094Z,92.00
2019-03-30T11:41:12.254Z,92.10
2019-03-30T11:43:42.435Z,91.50
2019-03-30T11:46:12.669Z,92.10
2019-03-30T11:48:42.918Z,92.20
2019-03-30T11:51:13.172Z,91.90
2019-03-30T11:53:43.541Z,90.90
2019-03-30T11:56:13.752Z,91.00
2019-03-30T11:58:43.988Z,91.80
2019-03-30T12:01:14.228Z,90.90
2019-03-30T12:03:44.488Z,91.40
2019-03-30T12:06:14.656Z,91.40
2019-03-30T12:08:44.868Z,91.80
2019-03-30T12:11:15.052Z,92.20
2019-03-30T12:13:45.221Z,91.70
2019-03-30T12:16:15.488Z,91.70
2019-03-30T12:18:45.728Z,90.10
2019-03-30T12:21:16.063Z,90.70
2019-03-30T12:23:46.333Z,90.60
2019-03-30T12:26:16.587Z,90.60
2019-03-30T12:28:46.811Z,89.50
2019-03-30T12:31:16.998Z,89.60
2019-03-30T12:33:47.238Z,89.40
2019-03-30T12:36:17.456Z,89.10
2019-03-30T12:38:47.708Z,88.40
2019-03-30T12:41:17.953Z,89.00
2019-03-30T12:43:48.191Z,87.20
2019-03-30T12:46:18.432Z,85.00
2019-03-30T12:48:49.742Z,86.30
2019-03-30T12:51:19.939Z,83.60
2019-03-30T12:53:50.790Z,84.50
2019-03-30T12:56:23.138Z,87.10
2019-03-30T12:58:53.403Z,90.30
2019-03-30T13:01:23.676Z,90.20
2019-03-30T13:03:53.853Z,85.20
2019-03-30T13:06:24.114Z,83.00
2019-03-30T13:08:54.357Z,81.10
2019-03-30T13:11:24.572Z,89.50
2019-03-30T13:13:54.819Z,83.90
2019-03-30T13:16:26.423Z,88.50
2019-03-30T13:18:56.575Z,87.00
2019-03-30T13:21:26.695Z,86.60
2019-03-30T13:23:56.831Z,84.20
2019-03-30T13:28:20.888Z,80.00
2019-03-30T13:29:50.409Z,71.70
2019-03-30T13:32:23.506Z,73.30
2019-03-30T13:34:53.794Z,74.60
2019-03-30T13:37:24.664Z,74.10
2019-03-30T13:39:54.902Z,68.10
2019-03-30T13:42:25.362Z,71.20
2019-03-30T13:44:55.689Z,66.30
2019-03-30T13:47:25.953Z,68.80
2019-03-30T13:49:56.229Z,71.90
2019-03-30T13:52:28.528Z,70.40
2019-03-30T13:54:59.228Z,69.50
2019-03-30T13:57:30.107Z,66.00
2019-03-30T14:00:00.839Z,67.20
2019-03-30T14:02:31.106Z,68.90
2019-03-30T14:05:01.358Z,69.00
2019-03-30T14:07:31.625Z,74.80
2019-03-30T14:10:01.877Z,73.60
2019-03-30T14:12:34.350Z,74.60
2019-03-30T14:15:04.940Z,66.30
2019-03-30T14:17:35.132Z,66.90
2019-03-30T14:20:06.171Z,65.40
2019-03-30T14:22:36.412Z,69.20
2019-03-30T14:25:07.176Z,72.30
2019-03-30T14:27:37.477Z,70.40
2019-03-30T14:30:08.572Z,64.20
2019-03-30T14:32:38.714Z,62.20
2019-03-30T14:35:09.198Z,65.00
2019-03-30T14:37:39.384Z,64.50
2019-03-30T14:40:09.830Z,65.70
2019-03-30T14:42:40.096Z,72.70
2019-03-30T14:45:10.546Z,70.80
2019-03-30T14:47:40.764Z,69.80
2019-03-30T14:50:11.401Z,71.30
2019-03-30T14:52:41.685Z,75.10
2019-03-30T14:55:12.043Z,77.30
2019-03-30T14:57:42.373Z,75.30
2019-03-30T15:00:13.450Z,78.30
2019-03-30T15:02:46.039Z,82.10
2019-03-30T15:05:16.366Z,81.90
2019-03-30T15:07:46.902Z,80.20
2019-03-30T15:10:17.313Z,80.80
2019-03-30T15:12:48.648Z,79.20
2019-03-30T15:15:18.798Z,81.10
2019-03-30T15:17:49.036Z,82.80
2019-03-30T15:20:19.527Z,85.50
2019-03-30T15:22:49.736Z,86.50
2019-03-30T15:25:30.392Z,87.00
2019-03-30T15:28:03.392Z,87.60
2019-03-30T15:30:33.668Z,89.10
2019-03-30T15:33:04.050Z,89.90
2019-03-30T15:35:34.356Z,89.50
2019-03-30T15:38:04.590Z,89.70
2019-03-30T15:40:44.352Z,90.40
2019-03-30T15:43:14.593Z,91.00
2019-03-30T15:45:44.848Z,91.60
2019-03-30T15:48:15.108Z,91.30
2019-03-30T15:50:45.546Z,91.60
2019-03-30T15:53:15.752Z,92.10
2019-03-30T15:55:45.969Z,92.50
2019-03-30T15:58:16.235Z,93.10
2019-03-30T16:00:46.424Z,93.20
2019-03-30T16:03:16.768Z,93.30
2019-03-30T16:05:46.961Z,93.90
2019-03-30T16:08:17.225Z,93.50
2019-03-30T16:10:47.389Z,93.80
2019-03-30T16:13:17.670Z,94.10
2019-03-30T16:15:47.993Z,94.20
2019-03-30T16:18:18.222Z,94.60
2019-03-30T16:20:48.405Z,95.20
2019-03-30T16:23:22.512Z,95.40
2019-03-30T16:25:54.706Z,95.70
2019-03-30T16:28:24.951Z,96.00
2019-03-30T16:30:55.446Z,96.00
2019-03-30T16:33:26.850Z,96.20
2019-03-30T16:35:57.073Z,96.50
2019-03-30T16:38:27.241Z,96.40
2019-03-30T16:40:59.294Z,96.50
2019-03-30T16:43:29.561Z,96.70
2019-03-30T16:45:59.811Z,96.80
2019-03-30T16:48:30.027Z,97.10
2019-03-30T16:51:02.327Z,97.30
2019-03-30T16:53:32.633Z,97.50
2019-03-30T16:56:02.818Z,97.60
2019-03-30T16:58:33.008Z,97.70
2019-03-30T17:01:03.236Z,98.00
2019-03-30T17:03:45.003Z,98.30
2019-03-30T17:06:15.336Z,98.50
2019-03-30T17:08:45.500Z,98.60
2019-03-30T17:11:21.224Z,99.00
2019-03-30T17:13:51.446Z,98.80
2019-03-30T17:16:21.606Z,98.90
2019-03-30T17:18:51.951Z,99.10
2019-03-30T17:21:22.161Z,99.50
2019-03-30T17:23:52.537Z,99.40
2019-03-30T17:26:22.753Z,96.70
2019-03-30T17:28:53.008Z,94.10
2019-03-30T17:31:29.263Z,91.30
2019-03-30T17:33:59.669Z,86.30
2019-03-30T17:36:43.152Z,79.90
2019-03-30T17:39:56.157Z,80.90
2019-03-30T17:42:26.341Z,80.40
2019-03-30T17:45:13.728Z,79.80
2019-03-30T17:47:47.021Z,78.90
2019-03-30T17:50:17.403Z,79.20
2019-03-30T17:53:12.382Z,78.30
2019-03-30T17:55:45.270Z,77.60
2019-03-30T17:58:23.190Z,79.20
2019-03-30T18:01:09.736Z,78.90
2019-03-30T18:03:55.100Z,79.50
2019-03-30T18:06:17.152Z,79.90
2019-03-30T18:08:59.097Z,80.10
2019-03-30T18:11:33.108Z,80.40
2019-03-30T18:14:03.536Z,81.00
2019-03-30T18:16:39.771Z,82.10
2019-03-30T18:19:49.716Z,82.30
2019-03-30T18:22:38.139Z,82.50
2019-03-30T18:25:42.670Z,83.00
2019-03-30T18:28:26.619Z,83.70
2019-03-30T18:30:57.513Z,84.10
2019-03-30T18:33:58.606Z,85.00
2019-03-30T18:37:15.532Z,85.00
2019-03-30T18:43:02.725Z,86.20
2019-03-30T18:53:25.532Z,86.90
2019-03-30T19:15:12.687Z,90.30
2019-03-30T19:21:58.655Z,91.10
2019-03-30T19:24:29.270Z,91.50
2019-03-30T19:26:59.571Z,92.00
2019-03-30T19:29:29.881Z,92.20
2019-03-30T19:32:02.512Z,92.70
2019-03-30T19:34:32.971Z,92.70
2019-03-30T19:37:03.530Z,92.90
2019-03-30T19:39:50.097Z,93.20
2019-03-30T19:42:20.469Z,93.40
2019-03-30T19:45:20.981Z,93.60
2019-03-30T19:47:49.845Z,93.90
2019-03-30T19:50:50.012Z,94.00
2019-03-30T19:54:13.842Z,94.10
2019-03-30T19:57:23.408Z,94.40
2019-03-30T20:00:30.478Z,94.80
2019-03-30T20:03:29.499Z,94.20
2019-03-30T20:06:02.520Z,93.80
2019-03-30T20:09:07.722Z,93.80
2019-03-30T20:11:30.918Z,93.90
2019-03-30T20:14:09.263Z,94.00
2019-03-30T20:16:45.997Z,94.00
2019-03-30T20:20:52.104Z,94.40
2019-03-30T20:23:22.098Z,94.60
2019-03-30T20:26:15.280Z,94.80
2019-03-30T20:29:04.749Z,94.80
2019-03-30T20:31:56.451Z,94.90
2019-03-30T20:34:48.484Z,95.00
2019-03-30T20:41:00.993Z,95.30
2019-03-30T20:44:28.139Z,95.50
2019-03-30T20:47:29.330Z,96.60
2019-03-30T20:49:59.525Z,96.70
2019-03-30T20:53:09.929Z,96.50
2019-03-30T20:55:48.517Z,97.00
2019-03-30T20:58:49.787Z,97.10
2019-03-30T21:12:20.676Z,97.80
2019-03-30T21:15:30.349Z,98.00
2019-03-30T21:18:05.960Z,98.00
2019-03-30T21:20:49.010Z,98.30
2019-03-30T21:24:39.441Z,98.30
2019-03-30T21:30:24.785Z,99.00
2019-03-30T21:33:32.277Z,98.90
2019-03-30T21:36:28.933Z,99.00
2019-03-30T21:40:00.468Z,99.10
2019-03-30T21:46:04.353Z,99.30
2019-03-30T21:48:35.852Z,99.30
2019-03-30T21:51:06.127Z,99.20
2019-03-30T21:53:36.839Z,99.20
2019-03-30T21:56:07.047Z,99.00
2019-03-30T22:02:55.072Z,98.80
2019-03-30T22:06:02.331Z,98.70
2019-03-30T22:08:38.555Z,98.70
2019-03-30T22:12:15.503Z,98.80
2019-03-30T22:14:48.405Z,98.60
2019-03-30T22:21:27.845Z,98.80
2019-03-30T22:24:41.676Z,98.90
2019-03-30T22:27:26.325Z,98.90
2019-03-30T22:30:24.224Z,98.90
2019-03-30T22:33:12.709Z,99.30
2019-03-30T22:37:20.990Z,99.10
2019-03-30T22:41:57.629Z,99.30
2019-03-30T22:44:54.325Z,99.30
2019-03-30T22:47:34.038Z,99.00
2019-03-30T22:50:16.183Z,99.30
2019-03-30T22:52:46.576Z,99.70
2019-03-30T22:55:19.458Z,99.90
2019-03-30T22:57:49.876Z,99.90
2019-03-30T23:00:49.711Z,99.90
2019-03-30T23:03:27.108Z,99.90
2019-03-30T23:05:59.449Z,99.90
2019-03-30T23:08:30.954Z,99.90
2019-03-30T23:11:04.475Z,99.90
2019-03-30T23:13:34.900Z,99.90
2019-03-30T23:16:05.500Z,99.90
2019-03-30T23:18:37.320Z,99.90
2019-03-30T23:21:13.512Z,99.90
2019-03-30T23:23:43.615Z,99.90
2019-03-30T23:26:13.896Z,99.90
2019-03-30T23:28:44.174Z,99.90
2019-03-30T23:31:14.404Z,99.90
2019-03-30T23:33:44.648Z,99.90
2019-03-30T23:36:14.870Z,99.90
2019-03-30T23:38:45.033Z,99.90
2019-03-30T23:41:15.237Z,99.90
2019-03-30T23:43:45.442Z,99.90
2019-03-30T23:46:15.721Z,99.90
2019-03-30T23:48:45.897Z,99.90
2019-03-30T23:51:16.084Z,99.90
2019-03-30T23:53:46.316Z,99.90
2019-03-30T23:56:21.992Z,99.90
2019-03-30T23:58:52.547Z,99.90
